createdAt,value
2019-02-27T00:01:09.043Z,19.20
2019-02-27T00:03:37.259Z,19.20
2019-02-27T00:06:05.105Z,19.20
2019-02-27T00:08:32.951Z,19.20
2019-02-27T00:11:00.791Z,19.20
2019-02-27T00:13:28.627Z,19.20
2019-02-27T00:15:56.766Z,19.10
2019-02-27T00:18:24.607Z,19.10
2019-02-27T00:20:52.459Z,19.10
2019-02-27T00:23:23.903Z,19.10
2019-02-27T00:25:50.238Z,19.10
2019-02-27T00:28:23.169Z,19.10
2019-02-27T00:30:47.659Z,19.10
2019-02-27T00:33:15.567Z,19.10
2019-02-27T00:35:43.435Z,19.10
2019-02-27T00:38:11.556Z,19.10
2019-02-27T00:40:39.500Z,19.00
2019-02-27T00:43:07.716Z,19.00
2019-02-27T00:45:39.695Z,19.00
2019-02-27T00:48:05.131Z,19.00
2019-02-27T00:50:33.247Z,19.00
2019-02-27T00:53:01.090Z,19.00
2019-02-27T00:55:29.007Z,19.00
2019-02-27T00:57:57.168Z,19.00
2019-02-27T01:00:25.010Z,19.00
2019-02-27T01:02:53.619Z,19.00
2019-02-27T01:05:21.875Z,19.00
2019-02-27T01:07:53.983Z,18.90
2019-02-27T01:10:19.964Z,18.90
2019-02-27T01:12:48.235Z,19.00
2019-02-27T01:15:16.071Z,18.90
2019-02-27T01:17:43.915Z,18.90
2019-02-27T01:20:12.077Z,18.90
2019-02-27T01:22:40.536Z,18.90
2019-02-27T01:25:08.623Z,18.90
2019-02-27T01:27:38.191Z,18.90
2019-02-27T01:30:06.679Z,18.90
2019-02-27T01:32:34.611Z,18.90
2019-02-27T01:35:02.450Z,18.90
2019-02-27T01:37:31.686Z,18.80
2019-02-27T01:40:00.296Z,18.80
2019-02-27T01:42:32.024Z,18.80
2019-02-27T01:44:58.135Z,18.80
2019-02-27T01:47:25.983Z,18.80
2019-02-27T01:49:54.115Z,18.80
2019-02-27T01:52:21.962Z,18.80
2019-02-27T01:54:49.803Z,18.80
2019-02-27T01:57:17.647Z,18.80
2019-02-27T01:59:45.499Z,18.80
2019-02-27T02:02:13.359Z,18.70
2019-02-27T02:04:41.199Z,18.80
2019-02-27T02:07:09.066Z,18.70
2019-02-27T02:09:37.614Z,18.70
2019-02-27T02:12:08.655Z,18.70
2019-02-27T02:15:04.992Z,18.70
2019-02-27T02:17:52.111Z,18.70
2019-02-27T02:20:27.012Z,18.70
2019-02-27T02:23:24.186Z,18.70
2019-02-27T02:26:14.146Z,18.70
2019-02-27T02:29:07.271Z,18.70
2019-02-27T02:31:46.703Z,18.70
2019-02-27T02:34:48.948Z,18.70
2019-02-27T02:37:27.378Z,18.60
2019-02-27T02:40:06.429Z,18.60
2019-02-27T02:42:59.171Z,18.60
2019-02-27T02:45:48.735Z,18.60
2019-02-27T02:48:34.796Z,18.60
2019-02-27T02:51:20.552Z,18.60
2019-02-27T02:54:05.699Z,18.60
2019-02-27T02:57:00.232Z,18.60
2019-02-27T02:59:42.831Z,18.60
2019-02-27T03:02:16.470Z,18.50
2019-02-27T03:05:23.302Z,18.50
2019-02-27T03:08:07.931Z,18.50
2019-02-27T03:10:42.792Z,18.50
2019-02-27T03:13:28.264Z,18.50
2019-02-27T03:16:21.924Z,18.50
2019-02-27T03:19:11.971Z,18.50
2019-02-27T03:22:05.183Z,18.50
2019-02-27T03:24:51.268Z,18.50
2019-02-27T03:27:47.511Z,18.50
2019-02-27T03:30:20.749Z,18.40
2019-02-27T03:32:54.340Z,18.40
2019-02-27T03:35:38.832Z,18.40
2019-02-27T03:38:23.671Z,18.40
2019-02-27T03:40:57.876Z,18.50
2019-02-27T03:43:33.159Z,18.40
2019-02-27T03:46:19.043Z,18.40
2019-02-27T03:49:05.087Z,18.40
2019-02-27T03:51:59.618Z,18.40
2019-02-27T03:54:32.288Z,18.40
2019-02-27T03:57:32.128Z,18.40
2019-02-27T04:00:18.074Z,18.30
2019-02-27T04:03:07.897Z,18.40
2019-02-27T04:05:46.053Z,18.40
2019-02-27T04:08:20.433Z,18.30
2019-02-27T04:10:48.384Z,18.30
2019-02-27T04:13:16.256Z,18.30
2019-02-27T04:15:44.195Z,18.30
2019-02-27T04:18:11.409Z,18.30
2019-02-27T04:20:39.275Z,18.30
2019-02-27T04:23:11.200Z,18.30
2019-02-27T04:25:36.705Z,18.30
2019-02-27T04:28:04.631Z,18.30
2019-02-27T04:30:32.503Z,18.30
2019-02-27T04:33:00.347Z,18.20
2019-02-27T04:35:28.491Z,18.30
2019-02-27T04:37:56.368Z,18.30
2019-02-27T04:40:24.231Z,18.30
2019-02-27T04:42:52.095Z,18.30
2019-02-27T04:45:20.622Z,18.20
2019-02-27T04:47:48.739Z,18.20
2019-02-27T04:50:16.608Z,18.20
2019-02-27T04:52:44.483Z,18.20
2019-02-27T04:55:13.070Z,18.20
2019-02-27T04:57:42.255Z,18.20
2019-02-27T05:00:10.297Z,18.20
2019-02-27T05:02:38.183Z,18.20
2019-02-27T05:05:06.197Z,18.20
2019-02-27T05:07:35.643Z,18.20
2019-02-27T05:10:06.875Z,18.20
2019-02-27T05:12:33.443Z,18.20
2019-02-27T05:15:04.084Z,18.20
2019-02-27T05:17:31.235Z,18.20
2019-02-27T05:19:59.083Z,18.10
2019-02-27T05:22:27.337Z,18.10
2019-02-27T05:24:55.270Z,18.10
2019-02-27T05:27:23.429Z,18.10
2019-02-27T05:29:51.262Z,18.10
2019-02-27T05:32:19.226Z,18.10
2019-02-27T05:34:49.736Z,18.10
2019-02-27T05:37:17.647Z,18.10
2019-02-27T05:39:45.491Z,18.10
2019-02-27T05:42:13.348Z,18.10
2019-02-27T05:44:41.191Z,18.10
2019-02-27T05:47:11.199Z,18.10
2019-02-27T05:49:39.016Z,18.00
2019-02-27T05:52:06.867Z,18.10
2019-02-27T05:54:34.934Z,18.10
2019-02-27T05:57:02.768Z,18.10
2019-02-27T05:59:30.665Z,18.20
2019-02-27T06:02:00.325Z,18.20
2019-02-27T06:04:28.430Z,18.30
2019-02-27T06:06:56.360Z,18.30
2019-02-27T06:09:24.203Z,18.30
2019-02-27T06:11:52.387Z,18.40
2019-02-27T06:14:21.401Z,18.40
2019-02-27T06:16:49.856Z,18.50
2019-02-27T06:19:17.705Z,18.60
2019-02-27T06:21:45.550Z,18.70
2019-02-27T06:24:13.395Z,18.80
2019-02-27T06:26:41.276Z,18.90
2019-02-27T06:29:09.484Z,19.00
2019-02-27T06:31:39.427Z,19.10
2019-02-27T06:34:07.259Z,19.10
2019-02-27T06:36:35.123Z,19.10
2019-02-27T06:39:03.451Z,19.10
2019-02-27T06:41:31.303Z,19.10
2019-02-27T06:44:01.592Z,19.10
2019-02-27T06:46:28.739Z,19.20
2019-02-27T06:48:56.619Z,19.20
2019-02-27T06:51:24.806Z,19.20
2019-02-27T06:53:52.962Z,19.30
2019-02-27T06:56:20.831Z,19.40
2019-02-27T06:58:50.087Z,19.40
2019-02-27T07:01:18.361Z,19.40
2019-02-27T07:03:46.231Z,19.20
2019-02-27T07:06:14.435Z,19.20
2019-02-27T07:08:42.608Z,19.10
2019-02-27T07:11:11.223Z,19.20
2019-02-27T07:13:39.671Z,19.10
2019-02-27T07:16:07.512Z,19.20
2019-02-27T07:18:36.479Z,19.20
2019-02-27T07:21:04.564Z,19.10
2019-02-27T07:23:32.790Z,19.00
2019-02-27T07:26:00.844Z,19.10
2019-02-27T07:28:29.277Z,19.30
2019-02-27T07:30:57.118Z,19.40
2019-02-27T07:33:25.575Z,19.50
2019-02-27T07:35:53.444Z,19.50
2019-02-27T07:38:22.201Z,19.40
2019-02-27T07:40:50.499Z,19.10
2019-02-27T07:43:18.821Z,19.10
2019-02-27T07:45:46.667Z,19.10
2019-02-27T07:48:15.125Z,19.10
2019-02-27T07:50:42.974Z,19.10
2019-02-27T07:53:11.164Z,19.20
2019-02-27T07:55:39.335Z,19.20
2019-02-27T07:58:07.175Z,19.20
2019-02-27T08:00:35.020Z,19.20
2019-02-27T08:03:03.139Z,19.20
2019-02-27T08:05:31.060Z,19.20
2019-02-27T08:07:58.899Z,19.20
2019-02-27T08:10:26.745Z,19.30
2019-02-27T08:12:56.511Z,19.30
2019-02-27T08:15:25.543Z,19.30
2019-02-27T08:17:57.666Z,19.40
2019-02-27T08:20:23.239Z,19.40
2019-02-27T08:22:51.418Z,19.40
2019-02-27T08:25:19.567Z,19.40
2019-02-27T08:27:47.739Z,19.40
2019-02-27T08:30:17.246Z,19.40
2019-02-27T08:32:45.427Z,19.40
2019-02-27T08:35:13.696Z,19.40
2019-02-27T08:37:41.877Z,19.40
2019-02-27T08:40:09.732Z,19.40
2019-02-27T08:42:40.380Z,19.40
2019-02-27T08:45:07.780Z,19.40
2019-02-27T08:47:35.892Z,19.50
2019-02-27T08:50:03.768Z,19.40
2019-02-27T08:52:31.611Z,19.40
2019-02-27T08:54:59.459Z,19.40
2019-02-27T08:57:27.303Z,19.40
2019-02-27T08:59:55.150Z,19.50
2019-02-27T09:02:24.224Z,19.50
2019-02-27T09:04:52.242Z,19.50
2019-02-27T09:07:20.464Z,19.50
2019-02-27T09:09:51.372Z,19.60
2019-02-27T09:12:18.239Z,19.60
2019-02-27T09:14:46.416Z,19.60
2019-02-27T09:17:14.259Z,19.60
2019-02-27T09:19:45.434Z,19.60
2019-02-27T09:22:12.059Z,19.60
2019-02-27T09:24:39.907Z,19.60
2019-02-27T09:27:07.752Z,19.60
2019-02-27T09:29:35.681Z,19.60
2019-02-27T09:32:03.524Z,19.60
2019-02-27T09:34:31.443Z,19.60
2019-02-27T09:36:59.387Z,19.60
2019-02-27T09:39:30.863Z,19.60
2019-02-27T09:41:57.145Z,19.60
2019-02-27T09:44:25.314Z,19.60
2019-02-27T09:46:53.202Z,19.60
2019-02-27T09:49:21.079Z,19.60
2019-02-27T09:51:49.218Z,19.70
2019-02-27T09:54:17.063Z,19.80
2019-02-27T09:56:44.915Z,19.90
2019-02-27T09:59:13.023Z,19.90
2019-02-27T10:01:41.196Z,19.70
2019-02-27T10:04:09.714Z,19.60
2019-02-27T10:06:37.675Z,19.60
2019-02-27T10:09:06.227Z,19.50
2019-02-27T10:11:34.071Z,19.60
2019-02-27T10:14:01.919Z,19.60
2019-02-27T10:16:29.762Z,19.70
2019-02-27T10:18:57.895Z,19.80
2019-02-27T10:21:25.747Z,19.80
2019-02-27T10:23:53.935Z,19.80
2019-02-27T10:26:22.661Z,19.90
2019-02-27T10:28:50.920Z,19.90
2019-02-27T10:31:19.092Z,19.90
2019-02-27T10:33:46.937Z,19.90
2019-02-27T10:36:16.204Z,19.90
2019-02-27T10:38:45.519Z,19.90
2019-02-27T10:41:13.812Z,20.00
2019-02-27T10:43:41.987Z,19.90
2019-02-27T10:46:09.827Z,19.90
2019-02-27T10:48:38.028Z,19.90
2019-02-27T10:51:05.895Z,19.90
2019-02-27T10:53:34.166Z,19.90
2019-02-27T10:56:02.039Z,19.90
2019-02-27T10:58:29.887Z,19.90
2019-02-27T11:01:01.124Z,19.90
2019-02-27T11:03:27.663Z,19.90
2019-02-27T11:05:55.700Z,19.90
2019-02-27T11:08:23.646Z,19.90
2019-02-27T11:10:51.519Z,19.90
2019-02-27T11:13:19.457Z,19.90
2019-02-27T11:15:47.326Z,19.90
2019-02-27T11:18:15.239Z,19.90
2019-02-27T11:20:43.459Z,19.90
2019-02-27T11:23:11.316Z,19.90
2019-02-27T11:25:39.163Z,19.90
2019-02-27T11:28:07.009Z,19.90
2019-02-27T11:30:36.785Z,19.90
2019-02-27T11:33:05.039Z,20.00
2019-02-27T11:35:33.219Z,20.00
2019-02-27T11:38:01.391Z,19.90
2019-02-27T11:40:29.261Z,20.00
2019-02-27T11:42:57.159Z,20.00
2019-02-27T11:45:25.299Z,20.00
2019-02-27T11:47:53.142Z,20.00
2019-02-27T11:50:20.992Z,20.00
2019-02-27T11:52:49.325Z,20.00
2019-02-27T11:55:17.267Z,20.10
2019-02-27T11:57:45.120Z,20.00
2019-02-27T12:00:21.093Z,20.10
2019-02-27T12:02:49.455Z,20.10
2019-02-27T12:05:17.303Z,20.10
2019-02-27T12:07:45.144Z,20.10
2019-02-27T12:10:14.916Z,20.10
2019-02-27T12:12:42.759Z,20.10
2019-02-27T12:15:11.576Z,20.10
2019-02-27T12:17:39.418Z,20.10
2019-02-27T12:20:08.330Z,20.10
2019-02-27T12:22:36.175Z,20.20
2019-02-27T12:25:04.099Z,20.20
2019-02-27T12:27:48.581Z,20.20
2019-02-27T12:30:02.768Z,20.20
2019-02-27T12:32:31.079Z,20.20
2019-02-27T12:34:59.367Z,20.20
2019-02-27T12:37:28.383Z,20.20
2019-02-27T12:39:57.091Z,20.20
2019-02-27T12:42:25.318Z,20.30
2019-02-27T12:44:54.574Z,20.20
2019-02-27T12:47:22.974Z,20.20
2019-02-27T12:49:51.544Z,20.20
2019-02-27T12:52:20.487Z,20.20
2019-02-27T12:54:48.508Z,20.20
2019-02-27T12:57:17.608Z,20.30
2019-02-27T12:59:46.119Z,20.20
2019-02-27T13:02:13.984Z,20.20
2019-02-27T13:04:41.832Z,20.20
2019-02-27T13:07:10.772Z,20.20
2019-02-27T13:09:39.585Z,20.20
2019-02-27T13:12:07.451Z,20.30
2019-02-27T13:14:35.295Z,20.40
2019-02-27T13:17:03.160Z,20.10
2019-02-27T13:19:31.024Z,20.10
2019-02-27T13:21:59.220Z,20.10
2019-02-27T13:24:27.387Z,20.10
2019-02-27T13:26:55.559Z,20.10
2019-02-27T13:29:23.754Z,20.00
2019-02-27T13:31:52.179Z,20.00
2019-02-27T13:34:20.119Z,19.90
2019-02-27T13:36:47.960Z,20.00
2019-02-27T13:39:16.125Z,19.90
2019-02-27T13:41:45.554Z,19.80
2019-02-27T13:44:13.704Z,19.90
2019-02-27T13:46:41.635Z,19.70
2019-02-27T13:49:11.427Z,19.70
2019-02-27T13:51:40.346Z,19.70
2019-02-27T13:54:08.392Z,19.70
2019-02-27T13:56:36.238Z,19.90
2019-02-27T13:59:04.102Z,20.00
2019-02-27T14:01:32.346Z,20.00
2019-02-27T14:04:00.563Z,20.10
2019-02-27T14:06:28.406Z,20.10
2019-02-27T14:08:56.559Z,20.10
2019-02-27T14:11:25.030Z,20.10
2019-02-27T14:13:53.716Z,20.10
2019-02-27T14:16:21.565Z,20.10
2019-02-27T14:18:49.998Z,20.10
2019-02-27T14:21:18.526Z,20.10
2019-02-27T14:23:47.103Z,20.10
2019-02-27T14:26:16.435Z,20.10
2019-02-27T14:28:44.275Z,20.10
2019-02-27T14:31:13.232Z,20.10
2019-02-27T14:33:41.142Z,20.10
2019-02-27T14:36:09.349Z,20.00
2019-02-27T14:38:37.255Z,20.00
2019-02-27T14:41:05.476Z,20.00
2019-02-27T14:43:33.395Z,20.00
2019-02-27T14:46:01.235Z,20.00
2019-02-27T14:48:29.080Z,20.00
2019-02-27T14:50:56.940Z,20.00
2019-02-27T14:53:25.114Z,20.00
2019-02-27T14:55:53.288Z,20.00
2019-02-27T14:58:24.081Z,20.00
2019-02-27T15:00:50.968Z,20.00
2019-02-27T15:03:18.811Z,20.00
2019-02-27T15:05:46.660Z,19.70
2019-02-27T15:08:14.787Z,19.60
2019-02-27T15:10:42.939Z,19.70
2019-02-27T15:13:11.114Z,19.80
2019-02-27T15:15:43.177Z,19.90
2019-02-27T15:18:08.560Z,19.90
2019-02-27T15:20:40.217Z,20.00
2019-02-27T15:23:06.146Z,20.00
2019-02-27T15:25:34.335Z,20.10
2019-02-27T15:28:02.522Z,20.00
2019-02-27T15:30:30.470Z,20.10
2019-02-27T15:33:03.976Z,20.10
2019-02-27T15:35:28.588Z,19.90
2019-02-27T15:37:56.747Z,19.80
2019-02-27T15:40:28.360Z,19.80
2019-02-27T15:42:54.728Z,19.80
2019-02-27T15:45:22.998Z,19.80
2019-02-27T15:47:51.179Z,19.80
2019-02-27T15:50:22.556Z,19.80
2019-02-27T15:52:49.291Z,19.70
2019-02-27T15:55:17.145Z,19.70
2019-02-27T15:57:44.987Z,19.80
2019-02-27T16:00:17.782Z,19.80
2019-02-27T16:02:43.519Z,19.70
2019-02-27T16:05:12.181Z,19.60
2019-02-27T16:07:40.348Z,19.60
2019-02-27T16:10:09.214Z,19.30
2019-02-27T16:12:37.129Z,19.40
2019-02-27T16:15:05.791Z,19.30
2019-02-27T16:17:33.635Z,19.40
2019-02-27T16:20:01.830Z,19.40
2019-02-27T16:22:31.479Z,19.40
2019-02-27T16:24:59.631Z,19.50
2019-02-27T16:27:27.783Z,19.50
2019-02-27T16:29:56.691Z,19.50
2019-02-27T16:32:25.563Z,19.50
2019-02-27T16:34:53.403Z,19.40
2019-02-27T16:37:22.839Z,19.40
2019-02-27T16:39:51.011Z,19.30
2019-02-27T16:42:18.886Z,19.30
2019-02-27T16:44:46.728Z,19.30
2019-02-27T16:47:15.513Z,19.20
2019-02-27T16:49:47.076Z,19.20
2019-02-27T16:52:13.850Z,19.10
2019-02-27T16:54:41.699Z,19.20
2019-02-27T16:57:09.580Z,19.20
2019-02-27T16:59:37.747Z,19.30
2019-02-27T17:02:05.655Z,19.30
2019-02-27T17:04:34.116Z,19.40
2019-02-27T17:07:02.937Z,19.40
2019-02-27T17:09:30.780Z,19.40
2019-02-27T17:11:58.679Z,19.40
2019-02-27T17:14:26.591Z,19.40
2019-02-27T17:16:54.731Z,19.50
2019-02-27T17:19:22.912Z,19.20
2019-02-27T17:21:50.787Z,19.10
2019-02-27T17:24:21.786Z,19.20
2019-02-27T17:26:48.279Z,19.30
2019-02-27T17:29:16.125Z,19.40
2019-02-27T17:31:49.308Z,19.40
2019-02-27T17:34:14.380Z,19.50
2019-02-27T17:36:42.783Z,19.60
2019-02-27T17:39:10.640Z,19.70
2019-02-27T17:41:38.823Z,19.70
2019-02-27T17:44:07.000Z,19.70
2019-02-27T17:46:34.842Z,19.80
2019-02-27T17:49:03.055Z,19.80
2019-02-27T17:51:31.266Z,19.90
2019-02-27T17:53:59.518Z,20.00
2019-02-27T17:56:27.418Z,20.00
2019-02-27T17:58:55.263Z,20.10
2019-02-27T18:01:25.436Z,20.10
2019-02-27T18:03:53.442Z,20.00
2019-02-27T18:06:21.406Z,19.80
2019-02-27T18:08:51.559Z,19.80
2019-02-27T18:11:19.115Z,20.00
2019-02-27T18:13:47.779Z,20.10
2019-02-27T18:16:15.775Z,20.10
2019-02-27T18:18:44.075Z,20.10
2019-02-27T18:21:12.047Z,20.10
2019-02-27T18:23:40.231Z,20.10
2019-02-27T18:26:08.080Z,20.10
2019-02-27T18:28:36.011Z,20.10
2019-02-27T18:31:03.854Z,20.20
2019-02-27T18:33:31.740Z,20.20
2019-02-27T18:36:04.462Z,20.20
2019-02-27T18:38:29.580Z,20.10
2019-02-27T18:40:57.751Z,20.10
2019-02-27T18:43:27.168Z,20.10
2019-02-27T18:45:55.224Z,20.00
2019-02-27T18:48:23.105Z,20.00
2019-02-27T18:50:50.947Z,20.00
2019-02-27T18:53:19.130Z,19.90
2019-02-27T18:55:47.304Z,19.90
2019-02-27T18:58:18.106Z,19.90
2019-02-27T19:00:45.090Z,19.90
2019-02-27T19:03:12.938Z,19.90
2019-02-27T19:05:42.113Z,19.90
2019-02-27T19:08:10.217Z,19.90
2019-02-27T19:10:41.314Z,19.90
2019-02-27T19:13:07.726Z,19.80
2019-02-27T19:15:35.574Z,19.70
2019-02-27T19:18:06.644Z,19.60
2019-02-27T19:20:34.057Z,19.60
2019-02-27T19:23:01.908Z,19.50
2019-02-27T19:25:34.058Z,19.50
2019-02-27T19:28:00.013Z,19.50
2019-02-27T19:30:28.037Z,19.50
2019-02-27T19:33:01.536Z,19.50
2019-02-27T19:35:25.823Z,19.50
2019-02-27T19:37:54.031Z,19.40
2019-02-27T19:40:23.548Z,19.40
2019-02-27T19:42:55.912Z,19.40
2019-02-27T19:45:24.085Z,19.50
2019-02-27T19:47:54.579Z,19.50
2019-02-27T19:50:21.663Z,19.40
2019-02-27T19:52:49.538Z,19.40
2019-02-27T19:55:17.406Z,19.40
2019-02-27T19:57:45.286Z,19.40
2019-02-27T20:00:14.788Z,19.40
2019-02-27T20:02:42.663Z,19.40
2019-02-27T20:05:10.508Z,19.40
2019-02-27T20:07:38.788Z,19.40
2019-02-27T20:10:07.351Z,19.50
2019-02-27T20:12:35.231Z,19.60
2019-02-27T20:15:03.396Z,19.60
2019-02-27T20:17:33.055Z,19.60
2019-02-27T20:20:04.097Z,19.60
2019-02-27T20:22:30.792Z,19.60
2019-02-27T20:24:58.955Z,19.60
2019-02-27T20:27:26.891Z,19.60
2019-02-27T20:29:54.890Z,19.60
2019-02-27T20:32:22.803Z,19.60
2019-02-27T20:34:50.727Z,19.60
2019-02-27T20:37:18.730Z,19.60
2019-02-27T20:39:46.887Z,19.60
2019-02-27T20:42:15.129Z,19.60
2019-02-27T20:44:43.623Z,19.60
2019-02-27T20:47:11.499Z,19.60
2019-02-27T20:49:39.671Z,19.60
2019-02-27T20:52:07.516Z,19.60
2019-02-27T20:54:35.805Z,19.60
2019-02-27T20:57:04.078Z,19.60
2019-02-27T20:59:32.347Z,19.60
2019-02-27T21:02:00.534Z,19.60
2019-02-27T21:04:28.452Z,19.70
2019-02-27T21:06:56.295Z,19.70
2019-02-27T21:09:24.412Z,19.70
2019-02-27T21:11:52.606Z,19.70
2019-02-27T21:14:23.662Z,19.70
2019-02-27T21:16:50.652Z,19.70
2019-02-27T21:19:18.491Z,19.70
2019-02-27T21:21:46.410Z,19.70
2019-02-27T21:24:14.261Z,19.70
2019-02-27T21:26:42.363Z,19.70
2019-02-27T21:29:10.312Z,19.70
2019-02-27T21:31:38.568Z,19.70
2019-02-27T21:34:06.475Z,19.70
2019-02-27T21:36:36.774Z,19.70
2019-02-27T21:39:04.483Z,19.60
2019-02-27T21:41:32.323Z,19.60
2019-02-27T21:44:00.203Z,19.60
2019-02-27T21:46:28.371Z,19.60
2019-02-27T21:48:58.616Z,19.60
2019-02-27T21:51:26.114Z,19.40
2019-02-27T21:53:54.443Z,19.50
2019-02-27T21:56:22.600Z,19.60
2019-02-27T21:58:50.549Z,19.60
2019-02-27T22:01:19.371Z,19.60
2019-02-27T22:03:48.091Z,19.60
2019-02-27T22:06:15.950Z,19.60
2019-02-27T22:08:44.289Z,19.60
2019-02-27T22:11:12.456Z,19.60
2019-02-27T22:13:42.231Z,19.50
2019-02-27T22:16:10.256Z,19.50
2019-02-27T22:18:38.408Z,19.50
2019-02-27T22:21:06.251Z,19.50
2019-02-27T22:23:34.451Z,19.50
2019-02-27T22:26:03.366Z,19.50
2019-02-27T22:28:32.231Z,19.50
2019-02-27T22:31:00.075Z,19.50
2019-02-27T22:33:27.947Z,19.50
2019-02-27T22:35:55.789Z,19.50
2019-02-27T22:38:26.624Z,19.50
2019-02-27T22:40:53.303Z,19.50
2019-02-27T22:43:22.089Z,19.50
2019-02-27T22:45:50.733Z,19.50
2019-02-27T22:48:18.595Z,19.50
2019-02-27T22:50:46.463Z,19.50
2019-02-27T22:53:14.312Z,19.50
2019-02-27T22:55:43.030Z,19.50
2019-02-27T22:58:11.439Z,19.50
2019-02-27T23:01:05.459Z,19.40
2019-02-27T23:03:44.264Z,19.40
2019-02-27T23:06:12.922Z,19.40
2019-02-27T23:08:41.302Z,19.40
2019-02-27T23:11:09.143Z,19.30
2019-02-27T23:13:36.978Z,19.30
2019-02-27T23:16:04.831Z,19.20
2019-02-27T23:18:32.682Z,19.20
2019-02-27T23:21:00.527Z,19.20
2019-02-27T23:23:28.375Z,19.20
2019-02-27T23:25:56.568Z,19.10
2019-02-27T23:28:24.745Z,19.10
2019-02-27T23:30:52.615Z,19.10
2019-02-27T23:33:20.463Z,19.10
2019-02-27T23:35:50.226Z,19.10
2019-02-27T23:38:17.923Z,19.00
2019-02-27T23:40:49.165Z,19.00
2019-02-27T23:43:15.355Z,19.00
2019-02-27T23:45:44.533Z,19.00
2019-02-27T23:48:12.803Z,19.00
2019-02-27T23:50:42.586Z,19.00
2019-02-27T23:53:10.255Z,19.00
2019-02-27T23:55:44.225Z,19.00
2019-02-27T23:58:08.027Z,19.00
